Time;durP1;ratioP1;P1;durP2;ratioP2;P2;SDS_P1;SDS_P2;PMS_P1;PMS_P2;Temp;Humidity;BMP_temperature;BMP_pressure;BME280_temperature;BME280_humidity;BME280_pressure;Samples;Min_cycle;Max_cycle;Signal;HPM_P1;HPM_P2
2023/04/06 00:01:34;;;;;;;10.18;5.65;;;4.90;86.70;;;;;;5012619;28;20105;-74
2023/04/06 00:04:00;;;;;;;12.20;5.97;;;4.80;87.40;;;;;;5008577;28;20468;-74
2023/04/06 00:06:26;;;;;;;10.98;5.65;;;4.80;87.10;;;;;;5013307;28;20037;-74
2023/04/06 00:08:52;;;;;;;11.98;6.18;;;4.90;87.00;;;;;;5011957;28;20026;-74
2023/04/06 00:11:18;;;;;;;10.80;6.40;;;4.80;87.40;;;;;;5011980;28;20087;-74
2023/04/06 00:13:44;;;;;;;11.02;7.05;;;4.90;87.00;;;;;;5012381;28;20026;-73
2023/04/06 00:16:10;;;;;;;10.52;5.50;;;4.90;87.30;;;;;;5012315;28;20727;-75
2023/04/06 00:18:36;;;;;;;12.65;5.95;;;4.60;87.70;;;;;;5010371;28;20066;-74
2023/04/06 00:21:02;;;;;;;10.55;6.13;;;4.80;87.10;;;;;;5011930;28;20111;-74
2023/04/06 00:23:28;;;;;;;9.45;5.97;;;4.70;87.90;;;;;;5010971;28;20072;-74
2023/04/06 00:25:53;;;;;;;11.05;5.90;;;4.90;87.10;;;;;;5012394;28;20481;-74
2023/04/06 00:28:25;;;;;;;15.57;6.38;;;5.00;87.20;;;;;;5010619;28;20038;-74
2023/04/06 00:30:52;;;;;;;16.23;5.95;;;4.90;87.20;;;;;;5012651;28;20034;-75
2023/04/06 00:33:18;;;;;;;9.77;5.43;;;5.00;87.50;;;;;;5008682;28;20560;-74
2023/04/06 00:35:44;;;;;;;11.45;6.50;;;5.00;87.20;;;;;;5013222;28;20041;-74
2023/04/06 00:38:10;;;;;;;12.13;7.35;;;5.10;87.00;;;;;;5012135;28;20468;-74
2023/04/06 00:40:35;;;;;;;11.77;6.03;;;5.10;86.80;;;;;;5011564;28;20084;-74
2023/04/06 00:43:01;;;;;;;10.20;5.82;;;5.10;86.70;;;;;;5011035;28;20538;-74
2023/04/06 00:45:27;;;;;;;9.95;5.88;;;5.10;86.70;;;;;;5012160;28;20122;-74
2023/04/06 00:47:53;;;;;;;13.32;7.00;;;5.20;86.90;;;;;;5009658;28;20109;-74
2023/04/06 00:50:19;;;;;;;11.57;6.20;;;5.10;86.80;;;;;;5012161;28;20118;-74
2023/04/06 00:52:45;;;;;;;9.45;5.60;;;5.10;87.30;;;;;;5009857;28;20109;-74
2023/04/06 00:55:11;;;;;;;12.10;6.05;;;4.90;87.80;;;;;;5009908;28;20080;-75
2023/04/06 00:57:37;;;;;;;10.45;5.85;;;4.90;87.80;;;;;;5011621;28;20041;-74
2023/04/06 01:00:03;;;;;;;10.35;6.25;;;4.80;87.80;;;;;;5012090;28;20099;-75
2023/04/06 01:02:29;;;;;;;12.15;5.88;;;4.80;88.30;;;;;;5009607;28;20030;-74
2023/04/06 01:04:55;;;;;;;11.88;7.43;;;4.80;88.80;;;;;;5010905;28;20030;-74
2023/04/06 01:07:21;;;;;;;16.17;6.78;;;5.00;87.30;;;;;;5011546;28;20033;-74
2023/04/06 01:09:46;;;;;;;16.17;6.97;;;5.20;86.40;;;;;;5011010;28;20447;-73
2023/04/06 01:12:12;;;;;;;11.07;5.88;;;5.30;86.40;;;;;;5008926;28;20113;-75
2023/04/06 01:14:38;;;;;;;11.98;6.30;;;4.90;88.30;;;;;;5010206;28;20041;-74
2023/04/06 01:17:03;;;;;;;13.63;5.72;;;4.80;88.80;;;;;;5012171;28;20033;-73
2023/04/06 01:19:29;;;;;;;13.10;5.50;;;4.70;89.20;;;;;;5011261;28;20034;-74
2023/04/06 01:21:55;;;;;;;14.57;7.35;;;4.80;88.80;;;;;;5011260;28;20113;-74
2023/04/06 01:24:21;;;;;;;8.90;5.78;;;4.70;88.40;;;;;;5008212;28;20080;-75
2023/04/06 01:26:47;;;;;;;12.25;6.50;;;4.80;88.60;;;;;;5010704;28;20065;-73
2023/04/06 01:29:13;;;;;;;9.77;6.40;;;4.80;87.90;;;;;;5011724;28;20111;-74
2023/04/06 01:31:39;;;;;;;10.68;5.47;;;4.70;88.80;;;;;;5011128;28;20037;-74
2023/04/06 01:34:05;;;;;;;16.30;6.60;;;4.80;88.10;;;;;;5008516;28;20062;-74
2023/04/06 01:36:31;;;;;;;11.55;6.30;;;4.70;88.10;;;;;;5008198;28;20022;-74
2023/04/06 01:38:57;;;;;;;12.27;6.38;;;4.60;88.50;;;;;;5012258;28;20033;-74
2023/04/06 01:41:23;;;;;;;11.60;5.72;;;4.60;88.10;;;;;;5011117;28;20030;-75
2023/04/06 01:43:49;;;;;;;9.75;5.43;;;4.50;88.10;;;;;;5009825;28;20034;-74
2023/04/06 01:46:15;;;;;;;14.30;5.75;;;4.80;87.20;;;;;;5009253;28;20041;-74
2023/04/06 01:48:42;;;;;;;10.25;5.80;;;4.80;87.30;;;;;;5010583;28;20025;-75
2023/04/06 01:51:08;;;;;;;12.40;5.70;;;4.60;87.50;;;;;;5010229;28;20036;-75
2023/04/06 01:53:33;;;;;;;12.07;5.68;;;4.50;87.30;;;;;;5010199;28;20449;-74
2023/04/06 01:55:59;;;;;;;11.48;5.40;;;4.60;87.20;;;;;;5007092;28;20034;-75
2023/04/06 01:58:25;;;;;;;13.30;6.28;;;4.60;86.80;;;;;;5006736;28;20080;-74
2023/04/06 02:00:51;;;;;;;10.00;5.30;;;4.60;86.80;;;;;;5010338;28;20374;-74
2023/04/06 02:03:16;;;;;;;11.82;6.38;;;4.40;87.50;;;;;;5009882;28;20030;-74
2023/04/06 02:05:42;;;;;;;10.45;5.72;;;4.30;87.80;;;;;;5011150;28;20042;-74
2023/04/06 02:08:08;;;;;;;9.48;5.50;;;4.30;88.40;;;;;;5011905;28;20093;-74
2023/04/06 02:10:34;;;;;;;10.90;5.80;;;4.20;89.10;;;;;;5014672;28;20065;-74
2023/04/06 02:13:01;;;;;;;10.18;5.88;;;4.20;89.10;;;;;;5015433;28;20028;-74
2023/04/06 02:15:27;;;;;;;13.43;6.03;;;4.20;88.50;;;;;;5015022;28;20460;-73
2023/04/06 02:17:53;;;;;;;10.10;5.70;;;4.10;89.00;;;;;;5014275;28;20081;-74
2023/04/06 02:20:18;;;;;;;11.45;5.43;;;4.10;88.40;;;;;;5012326;28;20038;-73
2023/04/06 02:22:44;;;;;;;13.75;7.18;;;4.10;89.10;;;;;;5014620;28;20030;-73
2023/04/06 02:25:10;;;;;;;10.82;5.60;;;4.10;89.20;;;;;;5013573;28;20488;-74
2023/04/06 02:27:36;;;;;;;12.50;6.38;;;4.10;89.50;;;;;;5015090;28;20089;-74
2023/04/06 02:30:02;;;;;;;20.90;6.55;;;4.00;90.00;;;;;;5011311;28;20105;-74
2023/04/06 02:32:28;;;;;;;12.63;5.53;;;3.90;90.00;;;;;;5014505;28;20133;-75
2023/04/06 02:34:54;;;;;;;9.68;5.72;;;3.70;90.20;;;;;;5014914;28;20061;-74
2023/04/06 02:37:20;;;;;;;10.02;5.47;;;3.80;90.40;;;;;;5013133;28;20053;-75
2023/04/06 02:39:47;;;;;;;10.27;6.05;;;3.90;90.50;;;;;;5012255;28;20033;-74
2023/04/06 02:42:14;;;;;;;10.27;6.68;;;4.00;90.20;;;;;;5013805;28;20069;-74
2023/04/06 02:44:41;;;;;;;11.50;5.95;;;4.00;90.00;;;;;;5014354;28;20049;-76
2023/04/06 02:47:06;;;;;;;8.63;5.25;;;3.90;90.10;;;;;;5010362;28;20073;-74
2023/04/06 02:49:32;;;;;;;13.45;5.70;;;3.80;90.00;;;;;;5013157;28;20124;-74
2023/04/06 02:51:58;;;;;;;11.63;6.13;;;3.90;89.10;;;;;;5013564;28;20030;-74
2023/04/06 02:54:24;;;;;;;12.68;5.10;;;4.00;88.90;;;;;;5014756;28;20048;-75
2023/04/06 02:56:49;;;;;;;11.02;5.53;;;4.00;88.50;;;;;;5013546;28;20411;-75
2023/04/06 02:59:15;;;;;;;10.45;5.10;;;4.00;88.30;;;;;;5009629;28;20030;-74
2023/04/06 03:01:41;;;;;;;8.38;5.10;;;3.90;88.40;;;;;;5013564;28;20072;-74
2023/04/06 03:04:06;;;;;;;9.85;6.03;;;4.00;88.00;;;;;;5008973;28;20149;-72
2023/04/06 03:06:32;;;;;;;9.48;4.93;;;4.00;88.10;;;;;;5008023;28;20053;-71
2023/04/06 03:08:58;;;;;;;12.25;5.07;;;4.00;87.90;;;;;;5006641;28;20026;-71
2023/04/06 03:11:23;;;;;;;12.52;5.60;;;3.90;88.30;;;;;;5008397;28;20029;-72
2023/04/06 03:13:49;;;;;;;8.55;5.03;;;3.90;88.30;;;;;;5007705;28;20038;-71
2023/04/06 03:16:15;;;;;;;12.98;5.57;;;3.80;88.10;;;;;;5008318;28;20083;-72
2023/04/06 03:18:40;;;;;;;10.50;5.28;;;3.60;88.90;;;;;;5003601;28;20052;-75
2023/04/06 03:21:06;;;;;;;8.25;4.72;;;3.50;89.60;;;;;;5003897;28;20046;-71
2023/04/06 03:23:33;;;;;;;11.55;5.20;;;3.50;90.00;;;;;;5008537;28;20523;-73
2023/04/06 03:25:59;;;;;;;9.95;5.30;;;3.40;90.10;;;;;;5009147;28;20041;-73
2023/04/06 03:28:24;;;;;;;9.88;5.35;;;3.30;90.30;;;;;;5008140;28;20083;-72
2023/04/06 03:30:50;;;;;;;11.88;5.40;;;3.20;90.30;;;;;;5007539;28;20045;-73
2023/04/06 03:33:16;;;;;;;10.57;5.45;;;3.30;90.10;;;;;;5007455;28;20030;-73
2023/04/06 03:35:41;;;;;;;9.77;4.78;;;3.40;90.00;;;;;;5008414;28;20113;-72
2023/04/06 03:38:07;;;;;;;11.98;5.40;;;3.40;89.60;;;;;;5008791;28;20061;-72
2023/04/06 03:40:33;;;;;;;8.98;5.05;;;3.20;90.10;;;;;;5006663;28;20400;-73
2023/04/06 03:42:58;;;;;;;9.27;5.20;;;3.20;90.30;;;;;;5008389;28;20025;-73
2023/04/06 03:45:24;;;;;;;9.38;5.15;;;3.00;90.60;;;;;;5007827;28;20064;-73
2023/04/06 03:47:50;;;;;;;9.20;4.93;;;3.00;90.60;;;;;;5005250;28;20178;-73
2023/04/06 03:50:15;;;;;;;12.55;5.72;;;2.90;90.90;;;;;;5004254;28;20588;-73
2023/04/06 03:52:41;;;;;;;12.23;5.40;;;2.90;90.90;;;;;;5006204;28;20041;-73
2023/04/06 03:55:07;;;;;;;11.95;5.03;;;2.90;90.70;;;;;;5023306;28;20038;-72
2023/04/06 03:57:33;;;;;;;9.68;5.60;;;2.90;90.70;;;;;;5005845;28;20045;-73
2023/04/06 03:59:59;;;;;;;10.77;5.82;;;3.00;90.50;;;;;;5001642;28;20605;-73
2023/04/06 04:02:25;;;;;;;10.10;6.00;;;3.10;90.40;;;;;;5005096;28;20107;-73
2023/04/06 04:04:50;;;;;;;12.93;5.70;;;3.00;90.40;;;;;;5004647;28;20476;-73
2023/04/06 04:07:16;;;;;;;9.77;5.85;;;3.00;90.50;;;;;;5005402;28;20112;-72
2023/04/06 04:09:42;;;;;;;13.00;6.00;;;3.00;90.60;;;;;;4998699;28;20025;-73
2023/04/06 04:12:07;;;;;;;12.63;6.20;;;3.00;90.50;;;;;;5005002;28;20037;-73
2023/04/06 04:14:33;;;;;;;11.98;6.35;;;2.90;90.70;;;;;;5005440;28;20037;-73
2023/04/06 04:16:59;;;;;;;10.38;5.90;;;2.90;90.70;;;;;;5003341;28;20017;-73
2023/04/06 04:19:24;;;;;;;12.93;5.72;;;2.80;90.80;;;;;;5001181;28;20066;-73
2023/04/06 04:21:50;;;;;;;11.18;6.22;;;2.90;91.00;;;;;;5004265;28;20040;-73
2023/04/06 04:24:16;;;;;;;11.20;5.75;;;2.90;90.70;;;;;;4995576;28;20068;-74
2023/04/06 04:26:42;;;;;;;8.88;5.13;;;2.80;90.70;;;;;;4998392;28;20041;-74
2023/04/06 04:29:07;;;;;;;10.60;6.22;;;2.90;90.70;;;;;;5004810;28;20038;-74
2023/04/06 04:31:33;;;;;;;14.10;6.18;;;3.00;90.40;;;;;;5001479;28;20037;-74
2023/04/06 04:34:00;;;;;;;10.73;5.90;;;2.90;90.60;;;;;;5003960;28;20512;-74
2023/04/06 04:36:26;;;;;;;15.88;8.27;;;2.90;90.50;;;;;;5002706;28;20114;-74
2023/04/06 04:38:52;;;;;;;15.52;6.13;;;3.00;90.50;;;;;;5001586;28;20022;-76
2023/04/06 04:41:18;;;;;;;10.63;6.07;;;3.00;90.30;;;;;;5004224;28;20022;-73
2023/04/06 04:43:44;;;;;;;11.80;6.88;;;3.00;90.10;;;;;;5003898;28;20175;-73
2023/04/06 04:46:09;;;;;;;9.20;5.60;;;2.80;90.50;;;;;;5004891;28;20038;-75
2023/04/06 04:48:35;;;;;;;12.73;5.68;;;2.70;90.90;;;;;;5001063;28;20392;-75
2023/04/06 04:51:01;;;;;;;7.47;4.18;;;2.60;90.90;;;;;;5003216;28;20038;-73
2023/04/06 04:53:27;;;;;;;10.18;5.93;;;2.70;90.00;;;;;;5002648;28;20034;-74
2023/04/06 04:55:52;;;;;;;9.90;5.47;;;2.80;90.00;;;;;;5003155;28;20076;-74
2023/04/06 04:58:19;;;;;;;10.70;5.68;;;2.80;90.00;;;;;;5004012;28;20038;-73
2023/04/06 05:00:45;;;;;;;11.93;6.35;;;2.80;90.30;;;;;;5004316;28;20133;-74
2023/04/06 05:03:24;;;;;;;9.73;6.47;;;2.90;90.40;;;;;;5002573;28;20034;-73
2023/04/06 05:05:50;;;;;;;12.55;6.57;;;2.90;90.40;;;;;;5002670;28;20105;-74
2023/04/06 05:08:16;;;;;;;15.70;6.13;;;3.00;90.00;;;;;;5005275;28;20033;-74
2023/04/06 05:10:42;;;;;;;10.43;5.50;;;2.90;90.20;;;;;;5004587;28;20022;-74
2023/04/06 05:13:07;;;;;;;16.70;6.10;;;3.00;90.10;;;;;;4996143;28;20057;-74
2023/04/06 05:15:34;;;;;;;10.90;5.55;;;3.10;89.30;;;;;;5001034;28;20052;-74
2023/04/06 05:18:01;;;;;;;9.50;4.75;;;3.30;89.40;;;;;;5003278;28;20022;-74
2023/04/06 05:20:27;;;;;;;8.40;4.82;;;3.40;88.90;;;;;;5019179;28;20439;-74
2023/04/06 05:22:53;;;;;;;10.10;5.47;;;3.30;89.10;;;;;;5003622;28;20480;-73
2023/04/06 05:25:19;;;;;;;9.85;5.40;;;3.30;89.40;;;;;;4996756;28;20041;-75
2023/04/06 05:27:45;;;;;;;13.55;5.53;;;3.40;89.70;;;;;;5002380;28;20369;-74
2023/04/06 05:30:11;;;;;;;11.52;5.93;;;3.50;89.30;;;;;;5001600;28;20026;-74
2023/04/06 05:32:36;;;;;;;8.52;6.35;;;3.60;90.30;;;;;;4998138;28;20473;-75
2023/04/06 05:35:02;;;;;;;11.95;5.97;;;3.60;89.50;;;;;;5002531;28;20026;-74
2023/04/06 05:37:28;;;;;;;10.95;6.63;;;3.60;90.10;;;;;;5003660;28;20052;-74
2023/04/06 05:39:53;;;;;;;10.38;5.47;;;3.70;89.90;;;;;;5003705;28;20034;-73
2023/04/06 05:42:19;;;;;;;11.45;6.25;;;3.90;88.80;;;;;;5001491;28;20033;-72
2023/04/06 05:44:45;;;;;;;11.60;5.47;;;4.00;88.20;;;;;;5002834;28;20497;-74
2023/04/06 05:47:11;;;;;;;10.25;5.07;;;4.00;88.00;;;;;;5004203;28;20504;-74
2023/04/06 05:49:36;;;;;;;12.00;4.97;;;4.10;87.60;;;;;;5004791;28;20084;-74
2023/04/06 05:52:02;;;;;;;9.77;5.03;;;4.30;88.10;;;;;;5001700;28;20943;-73
2023/04/06 05:54:28;;;;;;;6.50;4.00;;;4.40;88.80;;;;;;5001911;28;20044;-73
2023/04/06 05:56:53;;;;;;;9.20;5.20;;;4.50;89.20;;;;;;5003181;28;20113;-73
2023/04/06 05:59:20;;;;;;;8.65;4.78;;;4.60;89.20;;;;;;5002529;28;20427;-74
2023/04/06 06:01:46;;;;;;;12.40;5.05;;;4.60;88.00;;;;;;5002471;28;20157;-75
2023/04/06 06:04:11;;;;;;;9.85;5.20;;;4.70;87.90;;;;;;5002567;28;20125;-75
2023/04/06 06:06:37;;;;;;;11.68;6.05;;;4.80;87.90;;;;;;5003537;28;20042;-75
2023/04/06 06:09:03;;;;;;;10.55;4.80;;;4.90;88.20;;;;;;5003814;28;20053;-75
2023/04/06 06:11:29;;;;;;;10.30;5.55;;;5.00;87.70;;;;;;5003510;28;20034;-76
2023/04/06 06:13:55;;;;;;;10.35;5.22;;;5.20;88.20;;;;;;4998646;28;20119;-75
2023/04/06 06:16:21;;;;;;;9.68;5.65;;;5.30;87.60;;;;;;5000224;28;20108;-75
2023/04/06 06:18:47;;;;;;;10.15;6.15;;;5.40;87.90;;;;;;5002957;28;20041;-75
2023/04/06 06:21:13;;;;;;;12.60;6.10;;;5.50;87.70;;;;;;5003116;28;20049;-74
2023/04/06 06:23:39;;;;;;;11.25;6.57;;;5.50;87.60;;;;;;5001032;28;20109;-76
2023/04/06 06:26:05;;;;;;;13.57;5.80;;;5.40;87.40;;;;;;5002194;28;20432;-74
2023/04/06 06:28:31;;;;;;;15.90;6.03;;;5.30;88.60;;;;;;5002695;28;20042;-75
2023/04/06 06:30:56;;;;;;;11.63;5.60;;;5.30;88.80;;;;;;5003180;28;20088;-76
2023/04/06 06:33:22;;;;;;;9.10;4.97;;;5.40;88.60;;;;;;5000177;28;20120;-76
2023/04/06 06:35:51;;;;;;;13.52;6.18;;;5.40;88.40;;;;;;5003208;28;20700;-75
2023/04/06 06:38:17;;;;;;;14.40;6.18;;;5.40;88.30;;;;;;5002360;28;20040;-75
2023/04/06 06:40:43;;;;;;;12.73;5.93;;;5.40;88.90;;;;;;5002825;28;20030;-73
2023/04/06 06:43:09;;;;;;;14.63;6.65;;;5.40;88.90;;;;;;4999941;28;20052;-73
2023/04/06 06:45:34;;;;;;;12.43;6.13;;;5.30;88.80;;;;;;5001954;28;20058;-75
2023/04/06 06:48:00;;;;;;;10.88;5.80;;;5.20;89.80;;;;;;5002638;28;20568;-75
2023/04/06 06:50:26;;;;;;;12.93;5.93;;;5.20;89.70;;;;;;5017714;28;20098;-74
2023/04/06 06:52:53;;;;;;;10.13;6.28;;;5.20;89.70;;;;;;5002073;28;20105;-75
2023/04/06 06:55:19;;;;;;;8.35;5.68;;;5.70;88.60;;;;;;5006257;28;20116;-75
2023/04/06 06:57:46;;;;;;;12.38;6.85;;;6.80;85.50;;;;;;5005440;28;20109;-74
2023/04/06 07:00:13;;;;;;;10.52;6.45;;;7.80;82.70;;;;;;5006027;28;20476;-76
2023/04/06 07:02:39;;;;;;;11.32;6.20;;;8.70;80.20;;;;;;5001898;28;20091;-74
2023/04/06 07:05:05;;;;;;;12.48;7.03;;;10.30;77.80;;;;;;5006164;28;20026;-75
2023/04/06 07:07:34;;;;;;;9.60;6.10;;;11.70;75.20;;;;;;5005416;28;20149;-75
2023/04/06 07:10:00;;;;;;;10.65;6.43;;;12.30;71.90;;;;;;5005754;28;20021;-75
2023/04/06 07:12:27;;;;;;;11.52;6.72;;;12.80;71.40;;;;;;5003203;28;20053;-74
2023/04/06 07:14:52;;;;;;;15.63;6.80;;;12.70;71.10;;;;;;5005787;28;20113;-74
2023/04/06 07:17:18;;;;;;;9.48;5.55;;;12.00;71.10;;;;;;5010125;28;20112;-73
2023/04/06 07:19:45;;;;;;;9.77;6.10;;;12.50;71.50;;;;;;5003312;28;20034;-71
2023/04/06 07:22:11;;;;;;;13.35;5.72;;;13.60;70.40;;;;;;5002782;28;20029;-74
2023/04/06 07:24:37;;;;;;;18.45;6.55;;;12.50;70.30;;;;;;5004299;28;20404;-74
2023/04/06 07:27:03;;;;;;;19.48;6.32;;;9.70;74.80;;;;;;5004245;28;20038;-74
2023/04/06 07:29:28;;;;;;;11.63;6.15;;;8.10;78.60;;;;;;5003612;28;20030;-74
2023/04/06 07:31:55;;;;;;;9.35;6.25;;;7.30;81.50;;;;;;5000491;28;20423;-73
2023/04/06 07:34:21;;;;;;;13.15;6.07;;;6.90;83.10;;;;;;5005237;28;20048;-71
2023/04/06 07:36:47;;;;;;;19.75;7.28;;;6.60;83.80;;;;;;5006393;28;20386;-74
2023/04/06 07:39:12;;;;;;;12.95;6.47;;;6.40;84.00;;;;;;5003911;28;20030;-74
2023/04/06 07:41:38;;;;;;;12.20;6.28;;;6.30;85.10;;;;;;5001175;28;20586;-73
2023/04/06 07:44:04;;;;;;;10.80;5.90;;;6.40;84.90;;;;;;5003573;28;20038;-74
2023/04/06 07:46:30;;;;;;;13.13;5.78;;;6.40;84.10;;;;;;5004896;28;20044;-73
2023/04/06 07:48:57;;;;;;;12.60;6.30;;;6.30;83.80;;;;;;5004567;28;20029;-74
2023/04/06 07:51:23;;;;;;;13.60;6.45;;;6.40;83.00;;;;;;5001616;28;20498;-74
2023/04/06 07:53:50;;;;;;;10.27;6.32;;;6.50;84.00;;;;;;5002825;28;20033;-74
2023/04/06 07:56:16;;;;;;;10.45;5.97;;;6.60;83.30;;;;;;4999214;28;20034;-73
2023/04/06 07:58:42;;;;;;;9.73;5.68;;;6.40;83.70;;;;;;4995529;28;20065;-73
2023/04/06 08:01:07;;;;;;;10.70;5.35;;;6.60;83.80;;;;;;5001635;28;20030;-73
2023/04/06 08:03:34;;;;;;;9.23;5.68;;;6.70;82.90;;;;;;5019567;28;20052;-73
2023/04/06 08:06:00;;;;;;;8.63;5.97;;;6.70;82.60;;;;;;5002964;28;20116;-73
2023/04/06 08:08:25;;;;;;;9.77;5.13;;;6.70;82.00;;;;;;5003839;28;20147;-73
2023/04/06 08:10:51;;;;;;;12.88;6.28;;;6.70;82.60;;;;;;5003216;28;20030;-73
2023/04/06 08:13:17;;;;;;;9.55;5.75;;;6.90;82.50;;;;;;5004499;28;20189;-73
2023/04/06 08:15:43;;;;;;;13.98;5.68;;;6.90;83.70;;;;;;5003615;28;20034;-73
2023/04/06 08:18:09;;;;;;;12.93;5.88;;;7.00;82.50;;;;;;5004612;28;20053;-73
2023/04/06 08:20:35;;;;;;;15.20;5.95;;;7.10;82.40;;;;;;4998495;28;20595;-73
2023/04/06 08:23:01;;;;;;;9.93;5.45;;;7.20;82.80;;;;;;4999211;28;20038;-73
2023/04/06 08:25:27;;;;;;;8.95;5.78;;;7.40;82.90;;;;;;4999466;28;20037;-72
2023/04/06 08:27:52;;;;;;;11.90;5.80;;;7.40;82.70;;;;;;5014420;28;20064;-73
2023/04/06 08:30:19;;;;;;;8.18;5.75;;;7.20;82.70;;;;;;5015012;28;20691;-74
2023/04/06 08:32:45;;;;;;;16.35;7.03;;;7.30;82.10;;;;;;5005680;28;20381;-74
2023/04/06 08:35:11;;;;;;;11.02;5.68;;;7.30;81.80;;;;;;5006358;28;20072;-75
2023/04/06 08:37:37;;;;;;;11.85;7.10;;;7.40;82.20;;;;;;5006003;28;20033;-72
2023/04/06 08:40:04;;;;;;;16.00;7.80;;;7.40;82.20;;;;;;5003168;28;20041;-73
2023/04/06 08:42:32;;;;;;;10.25;6.43;;;7.50;82.70;;;;;;5001662;28;20487;-73
2023/04/06 08:44:59;;;;;;;12.40;7.20;;;7.40;81.80;;;;;;5003595;28;20069;-73
2023/04/06 08:47:25;;;;;;;11.63;6.40;;;7.50;82.30;;;;;;5004747;28;20026;-73
2023/04/06 08:49:52;;;;;;;10.88;6.38;;;7.80;82.10;;;;;;5004238;28;20423;-73
2023/04/06 08:52:19;;;;;;;11.07;6.78;;;7.80;82.50;;;;;;5002551;28;20105;-73
2023/04/06 08:54:45;;;;;;;10.88;6.50;;;8.00;81.40;;;;;;5003941;28;20033;-72
2023/04/06 08:57:11;;;;;;;13.98;7.22;;;7.90;82.10;;;;;;5003531;28;20030;-72
2023/04/06 08:59:38;;;;;;;13.43;7.38;;;8.60;81.20;;;;;;5004074;28;20594;-72
2023/04/06 09:02:05;;;;;;;11.70;7.28;;;11.90;77.50;;;;;;5001679;28;20021;-72
2023/04/06 09:04:33;;;;;;;10.90;6.75;;;14.80;73.30;;;;;;5003369;28;20112;-73
2023/04/06 09:06:59;;;;;;;19.90;7.88;;;15.10;70.60;;;;;;5002261;28;20049;-73
2023/04/06 09:09:25;;;;;;;15.70;7.65;;;16.60;68.80;;;;;;5004387;28;20409;-73
2023/04/06 09:11:52;;;;;;;11.75;7.28;;;17.00;67.80;;;;;;5002776;28;20047;-73
2023/04/06 09:14:36;;;;;;;13.10;7.05;;;16.50;67.00;;;;;;5003280;28;20109;-73
2023/04/06 09:17:02;;;;;;;14.23;7.53;;;15.40;66.80;;;;;;5001361;28;20088;-72
2023/04/06 09:19:27;;;;;;;12.75;8.00;;;15.90;68.40;;;;;;4997080;28;20797;-72
2023/04/06 09:22:09;;;;;;;12.45;7.43;;;16.00;67.10;;;;;;4998174;28;20116;-73
2023/04/06 09:24:48;;;;;;;13.95;7.72;;;15.80;70.20;;;;;;4992221;28;20038;-72
2023/04/06 09:27:14;;;;;;;15.43;7.55;;;15.70;70.00;;;;;;5003068;28;20038;-74
2023/04/06 09:29:41;;;;;;;11.70;7.35;;;16.70;69.30;;;;;;5003166;28;20107;-72
2023/04/06 09:32:10;;;;;;;10.75;6.97;;;16.50;67.20;;;;;;5000043;28;20556;-73
2023/04/06 09:34:38;;;;;;;14.55;7.75;;;16.40;68.30;;;;;;4993324;28;20036;-73
2023/04/06 09:37:13;;;;;;;12.10;7.40;;;15.90;67.40;;;;;;5002715;28;20511;-74
2023/04/06 09:39:39;;;;;;;11.85;7.35;;;16.20;67.80;;;;;;4995082;28;20048;-74
2023/04/06 09:42:05;;;;;;;20.13;8.60;;;14.60;68.80;;;;;;4995515;28;20672;-73
2023/04/06 09:44:31;;;;;;;11.50;6.82;;;13.30;70.90;;;;;;4996553;28;20054;-72
2023/04/06 09:46:57;;;;;;;13.80;6.95;;;12.60;71.00;;;;;;5001181;28;20044;-73
2023/04/06 09:49:24;;;;;;;14.10;7.38;;;11.90;72.20;;;;;;5002955;28;21102;-72
2023/04/06 09:51:56;;;;;;;12.40;6.90;;;11.20;72.90;;;;;;5002507;28;20974;-72
2023/04/06 09:54:23;;;;;;;10.95;6.72;;;11.00;72.90;;;;;;5002624;28;20088;-73
2023/04/06 09:56:58;;;;;;;12.65;6.80;;;11.00;73.50;;;;;;5000939;28;20044;-72
2023/04/06 09:59:38;;;;;;;8.35;5.88;;;11.40;72.00;;;;;;4997674;28;20029;-73
2023/04/06 10:02:07;;;;;;;9.88;6.10;;;11.00;70.40;;;;;;5002771;28;20069;-72
2023/04/06 10:05:08;;;;;;;10.77;5.85;;;10.80;71.20;;;;;;5002078;28;20064;-71
2023/04/06 10:07:35;;;;;;;8.55;4.75;;;10.90;70.10;;;;;;4995068;28;20073;-72
2023/04/06 10:10:02;;;;;;;11.35;5.70;;;11.10;67.40;;;;;;4998001;28;20108;-72
2023/04/06 10:12:28;;;;;;;10.32;6.22;;;11.10;70.00;;;;;;5002498;28;20180;-73
2023/04/06 10:14:55;;;;;;;10.88;6.30;;;11.20;70.50;;;;;;5003135;28;20139;-72
2023/04/06 10:17:20;;;;;;;12.32;6.45;;;11.40;69.10;;;;;;5002748;28;20027;-71
2023/04/06 10:19:52;;;;;;;10.63;6.05;;;11.40;68.80;;;;;;5001855;28;20088;-71
2023/04/06 10:22:29;;;;;;;11.68;5.15;;;12.00;70.60;;;;;;5002474;28;20656;-73
2023/04/06 10:24:55;;;;;;;9.38;4.90;;;12.30;66.40;;;;;;5002028;28;20030;-72
2023/04/06 10:27:31;;;;;;;7.82;4.32;;;12.10;66.60;;;;;;5003853;28;20467;-73
2023/04/06 10:30:05;;;;;;;18.52;11.63;;;12.00;68.10;;;;;;5005681;28;20030;-72
2023/04/06 10:32:38;;;;;;;13.27;9.32;;;12.30;68.10;;;;;;5002769;28;20026;-72
2023/04/06 10:35:12;;;;;;;10.80;6.43;;;12.60;67.60;;;;;;5003767;28;20025;-73
2023/04/06 10:37:51;;;;;;;10.57;5.45;;;12.70;67.00;;;;;;5005628;28;20120;-73
2023/04/06 10:40:25;;;;;;;9.02;5.22;;;12.40;66.20;;;;;;5005696;28;20026;-73
2023/04/06 10:42:55;;;;;;;9.82;5.32;;;12.40;65.70;;;;;;5006093;28;20472;-73
2023/04/06 10:45:23;;;;;;;8.93;3.85;;;12.30;65.90;;;;;;5006486;28;20150;-73
2023/04/06 10:47:52;;;;;;;6.07;3.50;;;12.20;64.40;;;;;;5004198;28;20052;-73
2023/04/06 10:50:17;;;;;;;5.95;3.45;;;12.50;62.50;;;;;;5004314;28;20034;-73
2023/04/06 10:52:46;;;;;;;8.43;3.85;;;13.10;63.20;;;;;;5006637;28;20049;-75
2023/04/06 10:55:16;;;;;;;9.40;4.30;;;13.40;60.70;;;;;;5002674;28;20504;-76
2023/04/06 10:57:42;;;;;;;7.47;3.92;;;13.60;60.60;;;;;;5004660;28;20044;-74
2023/04/06 11:00:09;;;;;;;4.80;2.40;;;13.70;61.00;;;;;;4998228;28;20123;-74
2023/04/06 11:02:37;;;;;;;5.50;3.28;;;13.90;59.50;;;;;;4999581;28;20022;-74
2023/04/06 11:05:03;;;;;;;6.90;4.68;;;14.00;59.10;;;;;;5001156;28;20412;-73
2023/04/06 11:07:30;;;;;;;6.68;3.33;;;13.60;58.40;;;;;;5006613;28;20034;-76
2023/04/06 11:09:56;;;;;;;10.65;2.80;;;13.60;60.60;;;;;;5005339;28;20069;-75
2023/04/06 11:12:22;;;;;;;7.50;2.70;;;13.70;61.00;;;;;;5002233;28;20062;-76
2023/04/06 11:15:05;;;;;;;5.65;2.80;;;13.50;60.50;;;;;;5005357;28;20088;-76
2023/04/06 11:17:34;;;;;;;4.90;2.65;;;13.50;60.70;;;;;;5004300;28;20050;-75
2023/04/06 11:20:00;;;;;;;7.00;4.03;;;13.50;62.10;;;;;;5006157;28;20549;-73
2023/04/06 11:22:26;;;;;;;11.75;5.55;;;13.80;62.10;;;;;;5004756;28;20034;-74
2023/04/06 11:24:52;;;;;;;5.80;3.05;;;13.90;60.10;;;;;;5004854;28;20033;-75
2023/04/06 11:27:19;;;;;;;19.45;16.25;;;13.50;61.60;;;;;;5004973;28;20041;-73
2023/04/06 11:29:49;;;;;;;16.17;9.73;;;14.00;62.70;;;;;;5005676;28;20044;-73
2023/04/06 11:32:22;;;;;;;10.88;5.53;;;14.30;62.00;;;;;;5005488;28;20053;-74
2023/04/06 11:34:48;;;;;;;5.55;3.20;;;14.40;61.10;;;;;;5005340;28;20025;-73
2023/04/06 11:37:14;;;;;;;8.05;2.88;;;14.60;60.50;;;;;;5005252;28;20356;-74
2023/04/06 11:39:46;;;;;;;5.50;3.08;;;14.50;60.40;;;;;;5002155;28;20034;-71
2023/04/06 11:42:12;;;;;;;10.60;4.00;;;14.20;60.80;;;;;;5004998;28;20108;-72
2023/04/06 11:44:45;;;;;;;7.97;4.72;;;14.00;60.70;;;;;;5004895;28;20153;-71
2023/04/06 11:47:12;;;;;;;6.90;4.55;;;14.50;61.90;;;;;;4999572;28;20061;-72
2023/04/06 11:49:40;;;;;;;7.35;4.50;;;15.00;61.50;;;;;;5003174;28;20577;-73
2023/04/06 11:52:22;;;;;;;8.05;3.10;;;14.80;59.70;;;;;;5000167;28;20035;-74
2023/04/06 11:54:49;;;;;;;6.97;3.20;;;14.30;60.00;;;;;;5002237;28;20092;-74
2023/04/06 11:57:16;;;;;;;9.23;5.57;;;14.30;61.10;;;;;;5002894;28;20029;-71
2023/04/06 11:59:42;;;;;;;8.27;3.97;;;14.40;62.30;;;;;;5004536;28;20029;-71
2023/04/06 12:02:08;;;;;;;6.38;3.90;;;14.90;60.90;;;;;;5003404;28;20103;-72
2023/04/06 12:04:34;;;;;;;5.55;3.55;;;15.00;60.80;;;;;;5004056;28;20369;-72
2023/04/06 12:07:00;;;;;;;6.00;3.63;;;14.50;60.10;;;;;;5004303;28;20495;-72
2023/04/06 12:09:26;;;;;;;6.03;3.95;;;14.70;62.50;;;;;;5002552;28;20050;-71
2023/04/06 12:11:52;;;;;;;5.70;3.30;;;14.90;59.80;;;;;;5003433;28;20033;-70
2023/04/06 12:14:17;;;;;;;11.48;6.68;;;15.10;63.10;;;;;;5004093;28;20030;-72
2023/04/06 12:16:43;;;;;;;5.80;3.55;;;15.40;61.20;;;;;;5001289;28;20022;-72
2023/04/06 12:19:09;;;;;;;6.38;3.30;;;15.10;60.60;;;;;;5005153;28;20026;-71
2023/04/06 12:21:38;;;;;;;9.55;3.50;;;15.20;59.10;;;;;;5002060;28;20041;-72
2023/04/06 12:24:05;;;;;;;7.80;3.80;;;15.20;59.70;;;;;;5001091;28;20030;-72
2023/04/06 12:26:31;;;;;;;7.13;2.97;;;15.30;60.10;;;;;;5002784;28;20033;-72
2023/04/06 12:28:57;;;;;;;9.77;4.22;;;14.80;59.40;;;;;;4995376;28;20416;-71
2023/04/06 12:31:25;;;;;;;5.55;4.07;;;14.60;59.50;;;;;;4999524;28;20037;-74
2023/04/06 12:33:51;;;;;;;6.18;3.35;;;15.10;60.30;;;;;;5002467;28;20018;-73
2023/04/06 12:36:21;;;;;;;5.97;3.33;;;15.50;61.50;;;;;;4997735;28;20029;-73
2023/04/06 12:38:51;;;;;;;6.28;3.45;;;15.70;60.20;;;;;;5001931;28;20143;-72
2023/04/06 12:41:17;;;;;;;5.40;3.05;;;15.80;60.60;;;;;;5002338;28;20072;-73
2023/04/06 12:43:44;;;;;;;5.35;3.40;;;15.70;61.70;;;;;;4998214;28;20897;-72
2023/04/06 12:46:10;;;;;;;6.70;4.38;;;15.80;61.40;;;;;;5004445;28;20053;-72